Time;durP1;ratioP1;P1;durP2;ratioP2;P2;SDS_P1;SDS_P2;PMS_P1;PMS_P2;Temp;Humidity;BMP_temperature;BMP_pressure;BME280_temperature;BME280_humidity;BME280_pressure;Samples;Min_cycle;Max_cycle;Signal;HPM_P1;HPM_P2
2021/07/29 00:02:27;;;;;;;19.15;10.07;;;;;;;26.88;39.59;99394.25;5025917;28;20030;-70
2021/07/29 00:04:52;;;;;;;24.38;9.20;;;;;;;27.01;38.98;99375.03;5010508;28;20054;-70
2021/07/29 00:07:18;;;;;;;17.23;9.20;;;;;;;26.88;39.26;99379.91;5010642;28;20072;-68
2021/07/29 00:09:47;;;;;;;23.23;9.85;;;;;;;26.68;39.55;99379.97;5025906;28;20036;-68
2021/07/29 00:12:13;;;;;;;28.38;9.65;;;;;;;26.65;39.79;99386.63;5010764;28;20026;-70
2021/07/29 00:14:47;;;;;;;23.10;9.52;;;;;;;26.80;39.50;99382.13;5010528;28;20112;-70
2021/07/29 00:17:27;;;;;;;26.20;10.05;;;;;;;26.80;39.33;99382.13;5010704;28;20029;-69
2021/07/29 00:19:52;;;;;;;22.58;9.57;;;;;;;26.91;39.15;99373.28;5010530;28;20038;-70
2021/07/29 00:22:18;;;;;;;24.88;9.70;;;;;;;26.59;39.62;99369.94;5010568;28;20034;-68
2021/07/29 00:24:43;;;;;;;17.40;8.63;;;;;;;26.71;39.20;99370.47;5025799;28;20038;-69
2021/07/29 00:27:09;;;;;;;22.30;8.98;;;;;;;26.56;39.68;99367.19;5010319;28;20472;-69
2021/07/29 00:29:34;;;;;;;27.02;10.75;;;;;;;26.33;40.73;99372.63;5010550;28;20504;-68
2021/07/29 00:31:59;;;;;;;28.38;9.75;;;;;;;26.33;40.39;99371.81;5010223;28;20022;-70
2021/07/29 00:34:25;;;;;;;32.17;11.25;;;;;;;26.39;40.17;99372.09;5009349;28;20076;-69
2021/07/29 00:36:50;;;;;;;26.23;10.07;;;;;;;26.19;40.81;99372.97;5025365;28;20026;-70
2021/07/29 00:39:16;;;;;;;20.92;9.25;;;;;;;26.17;40.82;99361.91;5010836;28;20037;-68
2021/07/29 00:41:41;;;;;;;18.55;8.93;;;;;;;26.54;40.10;99361.88;5010438;28;20030;-70
2021/07/29 00:44:07;;;;;;;25.48;9.88;;;;;;;26.30;40.25;99364.09;5010197;28;20084;-70
2021/07/29 00:46:34;;;;;;;27.48;9.52;;;;;;;26.35;40.26;99360.72;5010104;28;20092;-70
2021/07/29 00:49:00;;;;;;;26.77;8.57;;;;;;;26.19;41.35;99353.72;5010654;28;20403;-71
2021/07/29 00:51:27;;;;;;;21.63;9.43;;;;;;;26.16;41.44;99360.28;5010372;28;20113;-69
2021/07/29 00:53:53;;;;;;;23.60;10.40;;;;;;;26.08;41.28;99356.78;5010610;28;20112;-68
2021/07/29 00:56:18;;;;;;;18.20;8.65;;;;;;;25.91;42.23;99355.94;5014156;28;20081;-68
2021/07/29 00:58:44;;;;;;;21.20;9.80;;;;;;;25.95;41.98;99357.94;5014587;28;20026;-70
2021/07/29 01:01:09;;;;;;;22.80;9.25;;;;;;;26.03;41.24;99359.38;5029094;28;20492;-70
2021/07/29 01:03:35;;;;;;;21.80;9.02;;;;;;;26.22;40.79;99354.88;5014531;28;20033;-68
2021/07/29 01:06:01;;;;;;;25.27;9.52;;;;;;;26.09;40.73;99354.75;5013771;28;20037;-70
2021/07/29 01:08:26;;;;;;;16.75;8.65;;;;;;;26.00;41.04;99352.47;5014425;28;20315;-68
2021/07/29 01:10:52;;;;;;;24.88;9.23;;;;;;;26.03;41.08;99350.78;5014187;28;20030;-68
2021/07/29 01:13:17;;;;;;;26.08;8.68;;;;;;;25.84;41.43;99343.84;5014058;28;20022;-69
2021/07/29 01:15:43;;;;;;;20.45;9.77;;;;;;;25.84;41.42;99355.31;5013829;28;20033;-70
2021/07/29 01:18:08;;;;;;;20.98;8.88;;;;;;;25.84;41.41;99347.53;5028903;28;20447;-68
2021/07/29 01:20:34;;;;;;;24.00;8.82;;;;;;;25.96;40.98;99353.84;5013736;28;20021;-68
2021/07/29 01:22:59;;;;;;;23.50;10.27;;;;;;;26.01;40.98;99356.97;5013708;28;20026;-70
2021/07/29 01:25:25;;;;;;;24.58;9.27;;;;;;;25.93;41.66;99349.78;5028880;28;20111;-70
2021/07/29 01:27:50;;;;;;;28.50;10.35;;;;;;;25.75;42.25;99361.66;5013658;28;20030;-70
2021/07/29 01:30:16;;;;;;;27.67;9.63;;;;;;;25.95;41.75;99343.63;5013455;28;20042;-68
2021/07/29 01:32:41;;;;;;;23.58;10.02;;;;;;;25.65;42.11;99364.28;5013568;28;20034;-70
2021/07/29 01:35:08;;;;;;;24.65;10.32;;;;;;;25.71;42.43;99356.00;5028564;28;20104;-68
2021/07/29 01:37:34;;;;;;;21.50;9.35;;;;;;;25.59;42.46;99354.63;5013508;28;20076;-68
2021/07/29 01:40:00;;;;;;;21.23;9.73;;;;;;;25.43;42.70;99369.63;5013399;28;20030;-69
2021/07/29 01:42:25;;;;;;;19.40;9.90;;;;;;;25.47;42.88;99360.97;5011969;28;20033;-68
2021/07/29 01:44:51;;;;;;;26.40;10.00;;;;;;;25.44;42.25;99362.66;5028506;28;20033;-70
2021/07/29 01:47:16;;;;;;;17.00;10.07;;;;;;;25.23;42.98;99361.03;5012904;28;20065;-69
2021/07/29 01:49:42;;;;;;;24.70;9.90;;;;;;;25.09;43.01;99359.25;5028568;28;20034;-70
2021/07/29 01:52:09;;;;;;;20.48;9.93;;;;;;;25.19;42.92;99360.28;5013098;28;20133;-69
2021/07/29 01:54:34;;;;;;;22.10;9.65;;;;;;;24.88;43.36;99366.19;5013121;28;20034;-71
2021/07/29 01:57:00;;;;;;;19.35;9.20;;;;;;;24.77;43.69;99372.09;5013025;28;20036;-68
2021/07/29 01:59:25;;;;;;;25.17;9.40;;;;;;;24.90;43.45;99369.41;5013026;28;20049;-68
2021/07/29 02:01:50;;;;;;;25.92;9.77;;;;;;;24.87;44.05;99370.31;5012987;28;20040;-69
2021/07/29 02:04:16;;;;;;;30.50;11.05;;;;;;;24.81;43.71;99367.13;5013272;28;20041;-68
2021/07/29 02:06:41;;;;;;;34.40;11.48;;;;;;;24.80;43.41;99362.66;5010891;28;20052;-68
2021/07/29 02:09:07;;;;;;;30.33;12.15;;;;;;;24.63;43.84;99370.28;5013313;28;20026;-68
2021/07/29 02:11:34;;;;;;;29.25;10.82;;;;;;;24.68;43.43;99379.16;5012634;28;20034;-68
2021/07/29 02:14:01;;;;;;;30.67;9.07;;;;;;;24.57;43.86;99375.69;5013260;28;20030;-68
2021/07/29 02:16:26;;;;;;;24.25;9.88;;;;;;;24.51;44.22;99377.41;5012573;28;20073;-68
2021/07/29 02:18:53;;;;;;;27.85;10.45;;;;;;;24.38;44.71;99374.34;5013045;28;20052;-70
2021/07/29 02:21:18;;;;;;;27.25;9.50;;;;;;;24.69;43.61;99374.25;5012475;28;20052;-68
2021/07/29 02:23:45;;;;;;;18.13;8.38;;;;;;;24.87;43.34;99361.72;5012893;28;20026;-70
2021/07/29 02:26:11;;;;;;;27.83;11.02;;;;;;;24.74;43.23;99364.34;5012418;28;20030;-70
2021/07/29 02:28:37;;;;;;;34.88;10.57;;;;;;;24.79;43.17;99373.28;5027870;28;20040;-69
2021/07/29 02:31:02;;;;;;;27.25;11.52;;;;;;;24.58;43.46;99376.47;5012433;28;20577;-70
2021/07/29 02:33:28;;;;;;;20.15;10.70;;;;;;;24.59;43.82;99378.91;5012423;28;20060;-68
2021/07/29 02:35:53;;;;;;;28.48;10.32;;;;;;;24.50;43.60;99384.34;5027541;28;20030;-69
2021/07/29 02:38:19;;;;;;;21.50;9.45;;;;;;;24.33;44.14;99383.41;5012438;28;20022;-69
2021/07/29 02:40:44;;;;;;;29.90;9.23;;;;;;;24.20;44.02;99381.13;5027294;28;20052;-70
2021/07/29 02:43:10;;;;;;;30.65;9.23;;;;;;;24.42;44.29;99380.00;5027630;28;20511;-69
2021/07/29 02:45:35;;;;;;;27.63;10.40;;;;;;;24.27;44.11;99374.50;5012164;28;20033;-69
2021/07/29 02:48:01;;;;;;;28.23;9.98;;;;;;;24.42;43.87;99377.94;5027230;28;20053;-68
2021/07/29 02:50:26;;;;;;;30.55;9.70;;;;;;;24.38;44.06;99378.00;5011714;28;20049;-68
2021/07/29 02:52:51;;;;;;;21.67;10.32;;;;;;;24.57;43.83;99381.38;5011713;28;20061;-68
2021/07/29 02:55:17;;;;;;;28.40;9.32;;;;;;;24.45;43.90;99397.09;5012220;28;20088;-68
2021/07/29 02:57:42;;;;;;;40.65;10.52;;;;;;;24.52;43.79;99388.41;5011690;28;20029;-70
2021/07/29 03:00:08;;;;;;;31.48;10.05;;;;;;;24.61;43.84;99398.47;5011806;28;20029;-68
2021/07/29 03:02:34;;;;;;;18.17;10.13;;;;;;;24.58;43.99;99399.34;5011671;28;20033;-68
2021/07/29 03:04:59;;;;;;;23.05;11.15;;;;;;;24.59;44.17;99398.09;5001890;28;20045;-68
2021/07/29 03:07:26;;;;;;;20.92;9.90;;;;;;;24.26;44.65;99404.31;5011701;28;20026;-68
2021/07/29 03:09:52;;;;;;;23.92;10.55;;;;;;;24.32;44.39;99404.63;5011361;28;20037;-70
2021/07/29 03:12:18;;;;;;;21.63;10.23;;;;;;;24.28;44.77;99406.75;5011519;28;20026;-68
2021/07/29 03:14:46;;;;;;;27.88;10.50;;;;;;;24.15;45.03;99404.50;5010194;28;20550;-68
2021/07/29 03:17:11;;;;;;;26.58;9.52;;;;;;;23.80;45.73;99415.13;5011096;28;20492;-69
2021/07/29 03:19:36;;;;;;;29.35;11.10;;;;;;;23.94;45.72;99408.41;5011062;28;20076;-70
2021/07/29 03:22:02;;;;;;;28.52;10.77;;;;;;;23.96;45.49;99405.94;5011186;28;20080;-68
2021/07/29 03:24:28;;;;;;;25.80;10.32;;;;;;;23.93;45.71;99412.50;5011599;28;20041;-69
2021/07/29 03:26:53;;;;;;;22.20;9.48;;;;;;;24.00;45.12;99411.59;5011014;28;20458;-68
2021/07/29 03:29:19;;;;;;;30.73;11.00;;;;;;;24.07;45.08;99405.81;5010219;28;20022;-68
2021/07/29 03:31:44;;;;;;;27.00;9.73;;;;;;;23.88;45.50;99410.91;5009894;28;20091;-69
2021/07/29 03:34:09;;;;;;;28.50;10.38;;;;;;;23.82;45.77;99404.09;5011656;28;20511;-68
2021/07/29 03:36:35;;;;;;;26.02;11.00;;;;;;;23.59;46.53;99407.63;5009843;28;20045;-68
2021/07/29 03:39:05;;;;;;;31.45;12.00;;;;;;;23.62;46.27;99410.44;5009630;28;20295;-68
2021/07/29 03:41:30;;;;;;;34.50;12.60;;;;;;;23.68;45.93;99402.22;5011073;28;20037;-70
2021/07/29 03:43:56;;;;;;;28.80;11.15;;;;;;;23.68;45.97;99414.44;5011381;28;20403;-70
2021/07/29 03:46:21;;;;;;;20.45;9.95;;;;;;;23.99;45.00;99407.94;5010787;28;20034;-68
2021/07/29 03:48:46;;;;;;;23.70;10.45;;;;;;;24.08;44.75;99408.25;5011058;28;20050;-70
2021/07/29 03:51:13;;;;;;;32.38;11.73;;;;;;;24.12;44.79;99408.19;5010387;28;20038;-70
2021/07/29 03:53:38;;;;;;;31.70;11.88;;;;;;;23.90;44.86;99411.31;5010730;28;20026;-68
2021/07/29 03:56:04;;;;;;;22.02;11.40;;;;;;;23.90;45.09;99408.47;5011516;28;20060;-68
2021/07/29 03:58:29;;;;;;;21.10;10.05;;;;;;;23.89;44.69;99408.88;5010825;28;20435;-69
2021/07/29 04:00:58;;;;;;;21.75;10.35;;;;;;;23.86;45.01;99409.75;5009511;28;20026;-67
2021/07/29 04:03:23;;;;;;;30.38;10.65;;;;;;;23.80;45.16;99413.06;5009997;28;20025;-70
2021/07/29 04:05:49;;;;;;;36.42;12.60;;;;;;;23.79;45.01;99413.50;5010385;28;20495;-71
2021/07/29 04:08:14;;;;;;;26.02;10.43;;;;;;;23.83;44.70;99412.22;5010820;28;20030;-68
2021/07/29 04:10:40;;;;;;;33.47;10.95;;;;;;;24.11;44.18;99412.28;5009385;28;20042;-68
2021/07/29 04:13:05;;;;;;;21.60;9.93;;;;;;;24.22;44.17;99417.84;5010519;28;20100;-69
2021/07/29 04:15:31;;;;;;;31.13;11.43;;;;;;;24.20;43.76;99412.56;5010653;28;20042;-71
2021/07/29 04:17:56;;;;;;;36.03;10.30;;;;;;;24.37;43.35;99415.56;5010301;28;20052;-71
2021/07/29 04:20:21;;;;;;;31.98;10.70;;;;;;;24.23;43.87;99414.56;5010799;28;20030;-68
2021/07/29 04:22:47;;;;;;;21.20;9.02;;;;;;;24.38;43.85;99414.38;5010588;28;20060;-69
2021/07/29 04:25:12;;;;;;;51.03;11.98;;;;;;;24.47;43.82;99419.53;5009278;28;20516;-71
2021/07/29 04:27:38;;;;;;;35.40;10.05;;;;;;;24.37;44.71;99412.72;5010451;28;20029;-67
2021/07/29 04:30:04;;;;;;;25.42;10.77;;;;;;;24.57;44.33;99414.88;5013925;28;20076;-73
2021/07/29 04:32:35;;;;;;;31.58;9.95;;;;;;;24.42;44.78;99411.44;5014464;28;20522;-72
2021/07/29 04:35:00;;;;;;;40.30;10.95;;;;;;;24.49;45.05;99414.97;5016829;28;20073;-73
2021/07/29 04:37:25;;;;;;;38.15;10.82;;;;;;;24.53;45.49;99410.03;5016961;28;20488;-67
2021/07/29 04:39:51;;;;;;;31.23;11.38;;;;;;;24.65;44.95;99410.66;5016204;28;20022;-71
2021/07/29 04:42:16;;;;;;;39.55;12.15;;;;;;;24.80;45.13;99420.66;5015895;28;20034;-68
2021/07/29 04:44:42;;;;;;;18.42;10.23;;;;;;;24.56;46.00;99410.41;5013473;28;20038;-71
2021/07/29 04:47:07;;;;;;;29.20;9.55;;;;;;;24.75;45.92;99417.44;5012823;28;20069;-74
2021/07/29 04:49:33;;;;;;;24.50;11.02;;;;;;;24.76;45.54;99417.03;5011855;28;20034;-71
2021/07/29 04:51:59;;;;;;;22.95;10.93;;;;;;;24.83;45.60;99418.16;5001263;28;20049;-71
2021/07/29 04:54:24;;;;;;;24.33;9.57;;;;;;;24.90;45.43;99412.31;5011549;28;20022;-75
2021/07/29 04:56:49;;;;;;;20.35;10.43;;;;;;;24.58;46.74;99422.22;5014330;28;20455;-74
2021/07/29 04:59:15;;;;;;;23.50;10.27;;;;;;;24.62;46.96;99423.78;5013735;28;20037;-71
2021/07/29 05:01:40;;;;;;;23.55;11.32;;;;;;;24.57;47.69;99424.28;5009164;28;20512;-70
2021/07/29 05:04:06;;;;;;;33.63;11.25;;;;;;;24.78;47.36;99419.44;5009125;28;20026;-68
2021/07/29 05:06:34;;;;;;;25.60;10.63;;;;;;;24.43;48.62;99415.91;5007273;28;20034;-74
2021/07/29 05:08:59;;;;;;;36.58;11.95;;;;;;;24.54;49.09;99425.13;5015750;28;20100;-75
2021/07/29 05:11:25;;;;;;;22.42;10.57;;;;;;;24.70;48.73;99417.94;5014297;28;20104;-72
2021/07/29 05:13:53;;;;;;;29.40;10.52;;;;;;;24.66;48.92;99427.38;5013700;28;20025;-68
2021/07/29 05:16:19;;;;;;;31.38;11.85;;;;;;;24.69;49.13;99425.69;5015224;28;20730;-68
2021/07/29 05:18:44;;;;;;;22.70;10.95;;;;;;;24.92;48.80;99429.84;5011791;28;20034;-67
2021/07/29 05:21:10;;;;;;;32.47;11.07;;;;;;;25.11;48.81;99424.63;5012482;28;20042;-71
2021/07/29 05:23:36;;;;;;;18.55;9.70;;;;;;;24.92;49.10;99429.84;5008962;28;20116;-67
2021/07/29 05:26:02;;;;;;;26.88;11.13;;;;;;;25.01;48.67;99426.44;5012834;28;20121;-69
2021/07/29 05:28:28;;;;;;;38.63;11.43;;;;;;;25.16;48.11;99435.56;5013121;28;20067;-71
2021/07/29 05:30:54;;;;;;;19.88;9.75;;;;;;;25.22;48.18;99433.84;5014411;28;20060;-71
2021/07/29 05:33:19;;;;;;;21.88;9.88;;;;;;;25.29;48.09;99436.53;5016512;28;20033;-74
2021/07/29 05:35:45;;;;;;;21.27;9.55;;;;;;;25.38;47.29;99433.09;5009614;28;20027;-68
2021/07/29 05:38:11;;;;;;;18.95;10.05;;;;;;;25.44;47.62;99439.13;5012039;28;20026;-72
2021/07/29 05:40:36;;;;;;;21.73;9.73;;;;;;;25.49;47.81;99435.81;5007533;28;20188;-69
2021/07/29 05:43:02;;;;;;;23.40;10.68;;;;;;;25.71;47.18;99438.25;5006898;28;20022;-73
2021/07/29 05:45:34;;;;;;;24.05;10.25;;;;;;;25.73;47.03;99432.88;5028043;28;20132;-69
2021/07/29 05:47:59;;;;;;;20.08;10.10;;;;;;;25.81;46.83;99419.22;5027827;28;20046;-73
2021/07/29 05:50:25;;;;;;;25.08;11.25;;;;;;;25.92;45.98;99426.31;5011630;28;20064;-73
2021/07/29 05:52:50;;;;;;;24.20;9.85;;;;;;;25.94;45.63;99423.03;5011575;28;20026;-75
2021/07/29 05:55:16;;;;;;;31.00;10.88;;;;;;;26.10;44.83;99418.56;5028331;28;20067;-71
2021/07/29 05:57:41;;;;;;;27.65;10.35;;;;;;;26.04;45.25;99429.75;5011064;28;20126;-69
2021/07/29 06:00:07;;;;;;;18.00;10.85;;;;;;;26.10;46.00;99430.03;5009926;28;20034;-73
2021/07/29 06:02:33;;;;;;;20.15;10.93;;;;;;;26.21;44.85;99428.59;5026303;28;20036;-69
2021/07/29 06:04:58;;;;;;;34.10;11.18;;;;;;;26.31;44.42;99429.59;5010414;28;20045;-70
2021/07/29 06:07:26;;;;;;;28.48;9.88;;;;;;;26.38;44.75;99433.56;5026866;28;20084;-68
2021/07/29 06:09:52;;;;;;;27.35;10.43;;;;;;;26.46;44.81;99435.81;5011593;28;20022;-71
2021/07/29 06:12:24;;;;;;;15.48;10.15;;;;;;;26.45;44.78;99434.19;5011076;28;20034;-70
2021/07/29 06:14:50;;;;;;;18.92;11.10;;;;;;;26.60;45.04;99433.84;5012752;28;20110;-76
2021/07/29 06:17:15;;;;;;;22.35;10.30;;;;;;;26.60;44.53;99431.78;5028106;28;20021;-70
2021/07/29 06:19:42;;;;;;;15.80;10.45;;;;;;;26.75;44.04;99440.84;5027816;28;20404;-70
2021/07/29 06:22:07;;;;;;;26.00;12.02;;;;;;;26.65;44.62;99432.50;5012602;28;20029;-70
2021/07/29 06:24:33;;;;;;;21.42;10.60;;;;;;;26.67;44.77;99430.81;5027684;28;20100;-70
2021/07/29 06:26:59;;;;;;;24.50;11.20;;;;;;;26.59;45.53;99423.63;5012374;28;20022;-69
2021/07/29 06:29:25;;;;;;;17.73;10.85;;;;;;;26.69;45.32;99428.31;5027828;28;20048;-70
2021/07/29 06:31:50;;;;;;;16.88;10.75;;;;;;;26.79;44.70;99420.69;5012269;28;20487;-71
2021/07/29 06:34:16;;;;;;;17.38;10.05;;;;;;;26.82;44.53;99424.72;5012943;28;20664;-73
2021/07/29 06:36:41;;;;;;;20.52;10.48;;;;;;;26.98;44.02;99426.81;5012267;28;20104;-73
2021/07/29 06:39:07;;;;;;;27.85;11.45;;;;;;;27.02;43.54;99418.91;5012664;28;20065;-69
2021/07/29 06:41:32;;;;;;;22.02;11.15;;;;;;;27.15;43.74;99433.31;5027594;28;20029;-76
2021/07/29 06:43:59;;;;;;;19.25;10.70;;;;;;;27.22;43.92;99433.13;5012473;28;20041;-69
2021/07/29 06:46:25;;;;;;;25.38;11.90;;;;;;;27.32;43.62;99425.47;5012001;28;20029;-70
2021/07/29 06:48:50;;;;;;;19.58;11.77;;;;;;;27.35;43.29;99430.34;5027131;28;20038;-74
2021/07/29 06:51:16;;;;;;;20.08;10.45;;;;;;;27.37;43.07;99438.47;5027393;28;20112;-74
2021/07/29 06:53:41;;;;;;;20.75;12.50;;;;;;;27.57;43.38;99429.75;5012320;28;20061;-69
2021/07/29 06:56:07;;;;;;;29.10;11.07;;;;;;;27.65;42.54;99427.50;5027151;28;20021;-74
2021/07/29 06:58:34;;;;;;;21.83;11.23;;;;;;;27.78;42.37;99428.34;5027558;28;20045;-73
2021/07/29 07:01:05;;;;;;;24.48;9.70;;;;;;;27.90;41.97;99432.50;5027154;28;20422;-73
2021/07/29 07:03:31;;;;;;;20.02;10.85;;;;;;;28.04;42.45;99431.25;5027240;28;20033;-73
2021/07/29 07:06:04;;;;;;;16.35;10.32;;;;;;;28.08;41.97;99431.94;5010525;28;20084;-69
2021/07/29 07:08:30;;;;;;;20.92;9.60;;;;;;;27.89;41.26;99428.00;5010558;28;20583;-71
2021/07/29 07:10:55;;;;;;;20.17;10.30;;;;;;;28.03;40.83;99426.78;5026919;28;20041;-71
2021/07/29 07:13:21;;;;;;;22.15;11.88;;;;;;;28.22;40.34;99422.13;5012021;28;20472;-70
2021/07/29 07:15:47;;;;;;;18.33;9.52;;;;;;;28.30;40.63;99422.69;5011760;28;20038;-71
2021/07/29 07:18:13;;;;;;;21.52;10.60;;;;;;;28.29;40.50;99421.09;5011753;28;20438;-70
2021/07/29 07:20:39;;;;;;;17.42;10.60;;;;;;;28.40;40.17;99424.44;5011647;28;20088;-69
2021/07/29 07:23:04;;;;;;;24.15;10.77;;;;;;;28.52;40.07;99422.81;5011502;28;20092;-69
2021/07/29 07:25:30;;;;;;;19.17;11.02;;;;;;;28.64;39.83;99415.44;5011732;28;20080;-69
2021/07/29 07:27:55;;;;;;;18.33;10.02;;;;;;;28.60;40.62;99409.00;5009857;28;20100;-69
2021/07/29 07:30:20;;;;;;;25.15;10.30;;;;;;;28.67;40.17;99414.50;5011575;28;20022;-71
2021/07/29 07:32:46;;;;;;;26.45;9.82;;;;;;;28.82;38.35;99412.00;5011677;28;20037;-69
2021/07/29 07:35:11;;;;;;;17.65;9.70;;;;;;;28.92;37.72;99409.22;5026445;28;20021;-71
2021/07/29 07:37:39;;;;;;;23.73;10.05;;;;;;;29.13;37.77;99401.91;5011296;28;20488;-68
2021/07/29 07:40:06;;;;;;;26.38;9.68;;;;;;;29.18;36.79;99412.81;5011192;28;20040;-71
2021/07/29 07:42:32;;;;;;;21.27;10.02;;;;;;;29.32;36.41;99405.75;5011246;28;20030;-70
2021/07/29 07:44:57;;;;;;;19.23;9.20;;;;;;;29.36;35.53;99405.63;5026551;28;20125;-71
2021/07/29 07:47:23;;;;;;;18.67;9.40;;;;;;;29.46;35.28;99407.34;5010946;28;20041;-71
2021/07/29 07:49:48;;;;;;;26.73;10.52;;;;;;;29.68;35.88;99400.75;5026246;28;20030;-68
2021/07/29 07:52:14;;;;;;;20.38;10.25;;;;;;;29.80;35.18;99384.69;5006724;28;20032;-71
2021/07/29 07:54:39;;;;;;;16.95;10.48;;;;;;;29.87;35.53;99390.19;5008966;28;20049;-70
2021/07/29 07:57:07;;;;;;;39.95;10.73;;;;;;;29.88;35.19;99388.09;5008198;28;20033;-76
2021/07/29 07:59:37;;;;;;;34.97;11.88;;;;;;;29.92;35.54;99385.84;5010025;28;20099;-74
2021/07/29 08:02:03;;;;;;;25.70;9.85;;;;;;;30.03;34.90;99377.59;5010649;28;20488;-73
2021/07/29 08:04:29;;;;;;;34.15;11.20;;;;;;;30.16;33.93;99382.50;5010242;28;20128;-67
2021/07/29 08:06:55;;;;;;;26.77;9.60;;;;;;;30.28;33.72;99377.91;5010654;28;20453;-70
2021/07/29 08:09:20;;;;;;;15.80;8.68;;;;;;;30.39;34.48;99378.28;5011145;28;20033;-69
2021/07/29 08:11:45;;;;;;;25.52;9.27;;;;;;;30.29;34.49;99377.44;5009456;28;20030;-69
2021/07/29 08:14:11;;;;;;;21.10;9.93;;;;;;;30.44;34.55;99379.75;5011209;28;20028;-68
2021/07/29 08:16:37;;;;;;;21.10;9.73;;;;;;;30.56;33.93;99372.22;5010469;28;20041;-71
2021/07/29 08:19:03;;;;;;;311.40;33.38;;;;;;;30.71;33.71;99375.34;5026153;28;20056;-68
2021/07/29 08:21:29;;;;;;;31.48;9.50;;;;;;;30.85;32.85;99368.97;5009528;28;20050;-75
2021/07/29 08:23:55;;;;;;;25.50;10.07;;;;;;;30.89;32.33;99366.75;5026012;28;20026;-70
2021/07/29 08:26:20;;;;;;;23.88;9.40;;;;;;;31.07;32.55;99371.72;5025514;28;20033;-69
2021/07/29 08:28:46;;;;;;;27.90;9.90;;;;;;;31.15;32.48;99362.72;5010980;28;20437;-69
2021/07/29 08:31:13;;;;;;;21.08;9.80;;;;;;;31.18;32.15;99356.81;5010573;28;20030;-72
2021/07/29 08:33:40;;;;;;;26.75;8.05;;;;;;;31.15;31.26;99369.31;5010805;28;20038;-72
2021/07/29 08:36:11;;;;;;;31.15;9.77;;;;;;;31.14;32.64;99361.13;5025691;28;20034;-71
2021/07/29 08:38:37;;;;;;;25.85;9.05;;;;;;;31.09;32.19;99354.72;5010221;28;20534;-70
2021/07/29 08:41:02;;;;;;;25.48;9.57;;;;;;;31.17;33.44;99354.38;5010350;28;20028;-72
2021/07/29 08:43:28;;;;;;;28.05;9.50;;;;;;;31.21;32.70;99358.72;5010821;28;20068;-74
2021/07/29 08:45:54;;;;;;;30.42;9.23;;;;;;;31.23;33.93;99355.41;5025357;28;20032;-69
2021/07/29 08:48:27;;;;;;;16.55;9.20;;;;;;;31.20;34.73;99344.78;5010632;28;20058;-73
2021/07/29 08:50:53;;;;;;;20.92;9.20;;;;;;;31.32;34.06;99338.06;5010550;28;20563;-72
2021/07/29 08:53:20;;;;;;;24.05;9.30;;;;;;;31.36;33.19;99332.91;5010651;28;20026;-76
2021/07/29 08:55:53;;;;;;;26.60;9.10;;;;;;;31.48;32.22;99339.00;5025254;28;20393;-78
2021/07/29 08:58:19;;;;;;;19.20;8.25;;;;;;;31.63;32.02;99339.94;5010658;28;20049;-69
2021/07/29 09:01:01;;;;;;;13.38;7.72;;;;;;;31.85;31.88;99335.25;5010164;28;20573;-72
2021/07/29 09:03:27;;;;;;;21.13;9.15;;;;;;;31.88;32.04;99335.06;5010545;28;20380;-73
2021/07/29 09:06:05;;;;;;;22.40;7.60;;;;;;;31.97;31.30;99327.66;5010163;28;20062;-71
2021/07/29 09:08:46;;;;;;;21.63;7.68;;;;;;;32.07;30.95;99330.03;5010629;28;20414;-70
2021/07/29 09:11:37;;;;;;;23.95;7.88;;;;;;;32.19;31.59;99321.63;5010036;28;20061;-70
2021/07/29 09:14:03;;;;;;;9.23;6.40;;;;;;;32.33;31.15;99315.09;5010636;28;20032;-77
2021/07/29 09:16:29;;;;;;;21.05;7.75;;;;;;;32.35;30.75;99309.69;5025801;28;20034;-74
2021/07/29 09:18:54;;;;;;;26.00;7.47;;;;;;;32.58;29.86;99307.31;5014288;28;20438;-71
2021/07/29 09:21:20;;;;;;;21.45;7.07;;;;;;;32.68;29.98;99310.94;5013598;28;20038;-75
2021/07/29 09:24:10;;;;;;;15.90;6.55;;;;;;;32.80;28.86;99299.59;5029111;28;20030;-75
2021/07/29 09:26:58;;;;;;;14.80;6.82;;;;;;;32.69;28.82;99306.72;5013502;28;20073;-73
2021/07/29 09:29:25;;;;;;;27.25;7.55;;;;;;;32.73;29.74;99294.97;5013348;28;20034;-76
2021/07/29 09:32:04;;;;;;;21.02;7.68;;;;;;;32.91;29.98;99289.06;5012783;28;20037;-75
2021/07/29 09:34:43;;;;;;;22.73;8.95;;;;;;;33.17;29.62;99287.72;5013020;28;20459;-75
2021/07/29 09:37:10;;;;;;;20.73;7.65;;;;;;;33.30;30.19;99285.31;5011993;28;20025;-76
2021/07/29 09:39:36;;;;;;;14.23;6.93;;;;;;;33.28;29.77;99285.03;5013557;28;20091;-74
2021/07/29 09:42:22;;;;;;;17.63;7.90;;;;;;;33.55;28.63;99288.19;5028336;28;20026;-74
2021/07/29 09:44:50;;;;;;;21.55;7.43;;;;;;;33.63;28.50;99274.88;5013480;28;20072;-73
2021/07/29 09:47:19;;;;;;;17.08;8.02;;;;;;;33.68;28.75;99279.16;5028251;28;20147;-72
2021/07/29 09:49:46;;;;;;;15.85;7.68;;;;;;;33.62;28.35;99273.25;5013422;28;20038;-72
2021/07/29 09:52:13;;;;;;;18.65;7.57;;;;;;;33.74;29.03;99274.28;5013058;28;20496;-73
2021/07/29 09:54:44;;;;;;;18.52;8.05;;;;;;;33.80;28.78;99277.25;5012758;28;20053;-75
2021/07/29 09:57:10;;;;;;;20.73;7.85;;;;;;;33.92;28.32;99269.53;5012456;28;20034;-74
2021/07/29 09:59:39;;;;;;;14.40;8.27;;;;;;;33.87;29.17;99265.22;5013055;28;20112;-73
2021/07/29 10:02:06;;;;;;;21.30;8.60;;;;;;;33.99;28.56;99263.34;5028248;28;20050;-73
2021/07/29 10:04:46;;;;;;;22.30;8.48;;;;;;;34.02;28.44;99263.13;5012845;28;20041;-73
2021/07/29 10:07:24;;;;;;;14.38;8.52;;;;;;;34.13;27.64;99255.91;5012866;28;20033;-74
2021/07/29 10:09:52;;;;;;;18.33;9.27;;;;;;;34.17;28.66;99250.69;5012860;28;20499;-73
2021/07/29 10:12:26;;;;;;;34.03;8.68;;;;;;;34.15;28.65;99253.28;5011651;28;20084;-73
2021/07/29 10:14:54;;;;;;;25.67;8.63;;;;;;;34.19;28.36;99241.47;5012619;28;20032;-74
2021/07/29 10:17:46;;;;;;;22.10;8.57;;;;;;;34.26;28.78;99241.06;5027900;28;20041;-73
2021/07/29 10:20:16;;;;;;;22.23;7.78;;;;;;;34.44;27.67;99239.97;5008158;28;20040;-74
2021/07/29 10:22:45;;;;;;;23.75;8.43;;;;;;;34.46;27.83;99236.59;5028107;28;20037;-73
2021/07/29 10:25:11;;;;;;;22.00;8.82;;;;;;;34.55;27.44;99231.44;5027730;28;20056;-73
2021/07/29 10:27:37;;;;;;;20.08;8.20;;;;;;;34.70;25.88;99224.75;5012021;28;20484;-75
2021/07/29 10:30:21;;;;;;;20.17;8.73;;;;;;;34.73;26.89;99223.72;5010775;28;20587;-82
2021/07/29 10:32:51;;;;;;;23.55;9.10;;;;;;;34.94;26.01;99217.88;5012515;28;20098;-73
2021/07/29 10:35:26;;;;;;;17.73;8.48;;;;;;;35.05;25.94;99218.03;5012568;28;20109;-76
2021/07/29 10:37:54;;;;;;;14.60;7.82;;;;;;;35.21;26.08;99207.91;5010588;28;20104;-72
2021/07/29 10:40:33;;;;;;;21.30;9.45;;;;;;;35.21;25.30;99210.00;5010705;28;20034;-78
2021/07/29 10:43:20;;;;;;;23.40;8.00;;;;;;;35.24;26.52;99206.09;5011076;28;20488;-73
2021/07/29 10:45:53;;;;;;;19.65;8.63;;;;;;;35.33;26.41;99202.19;5027415;28;20026;-73
2021/07/29 10:51:13;;;;;;;17.50;7.75;;;;;;;35.44;26.75;99192.75;5012519;28;20030;-72
2021/07/29 10:53:46;;;;;;;22.25;8.60;;;;;;;35.34;26.52;99192.16;5012528;28;20353;-74
2021/07/29 10:56:16;;;;;;;25.40;9.13;;;;;;;35.41;26.15;99186.66;5011999;28;20041;-76
2021/07/29 10:58:44;;;;;;;16.65;7.82;;;;;;;35.37;26.39;99183.22;5011365;28;20491;-75
2021/07/29 11:01:11;;;;;;;18.08;8.07;;;;;;;35.48;25.87;99178.78;5009339;28;20129;-71
2021/07/29 11:03:46;;;;;;;19.05;8.57;;;;;;;35.65;26.06;99176.03;5007190;28;20034;-71
2021/07/29 11:06:15;;;;;;;14.32;7.70;;;;;;;35.89;24.83;99169.84;5010720;28;20029;-74
2021/07/29 11:08:41;;;;;;;22.92;7.55;;;;;;;35.91;25.65;99166.44;5011045;28;20034;-74
2021/07/29 11:11:07;;;;;;;22.38;9.18;;;;;;;35.91;25.58;99163.53;5017256;28;20064;-75
2021/07/29 11:13:35;;;;;;;17.98;9.68;;;;;;;36.05;25.35;99164.69;5011567;28;20084;-74
2021/07/29 11:16:02;;;;;;;18.00;9.50;;;;;;;36.07;25.15;99167.84;5011705;28;20025;-74
2021/07/29 11:18:27;;;;;;;19.20;8.68;;;;;;;36.04;24.57;99172.59;5007478;28;20519;-74
2021/07/29 11:20:53;;;;;;;25.30;7.82;;;;;;;35.98;24.56;99163.84;5003566;28;20034;-75
2021/07/29 11:23:37;;;;;;;18.48;8.93;;;;;;;36.06;25.01;99163.34;5009037;28;20475;-74
2021/07/29 11:26:04;;;;;;;24.33;9.63;;;;;;;36.16;24.64;99161.81;5007821;28;20475;-75